Time;durP1;ratioP1;P1;durP2;ratioP2;P2;SDS_P1;SDS_P2;PMS_P1;PMS_P2;Temp;Humidity;BMP_temperature;BMP_pressure;BME280_temperature;BME280_humidity;BME280_pressure;Samples;Min_cycle;Max_cycle;Signal;HPM_P1;HPM_P2
2022/12/31 00:00:13;;;;;;;3.08;1.17;;;;;;;;;;4986124;28;20552;-54
2022/12/31 00:02:47;;;;;;;4.28;0.93;;;;;;;;;;4986220;28;20064;-52
2022/12/31 00:05:14;;;;;;;1.48;0.80;;;;;;;;;;4983095;28;20050;-63
2022/12/31 00:07:48;;;;;;;2.65;0.98;;;;;;;;;;4989222;28;20508;-63
2022/12/31 00:10:15;;;;;;;2.85;0.77;;;;;;;;;;4985240;28;20050;-62
2022/12/31 00:12:42;;;;;;;1.70;1.00;;;;;;;;;;4990020;28;20056;-63
2022/12/31 00:15:16;;;;;;;1.10;0.90;;;;;;;;;;4988039;28;20502;-62
2022/12/31 00:17:43;;;;;;;3.60;1.05;;;;;;;;;;4988697;28;20269;-62
2022/12/31 00:20:10;;;;;;;2.03;0.80;;;;;;;;;;4990601;28;20065;-61
2022/12/31 00:22:44;;;;;;;1.50;0.70;;;;;;;;;;4988106;28;20485;-63
2022/12/31 00:25:11;;;;;;;0.47;0.47;;;;;;;;;;4989280;28;20487;-62
2022/12/31 00:27:45;;;;;;;3.05;0.75;;;;;;;;;;4987666;28;20050;-62
2022/12/31 00:30:24;;;;;;;1.85;0.77;;;;;;;;;;4986407;28;20152;-63
2022/12/31 00:32:59;;;;;;;1.58;0.75;;;;;;;;;;4973856;28;20086;-63
2022/12/31 00:35:26;;;;;;;1.80;0.50;;;;;;;;;;4989876;28;20052;-64
2022/12/31 00:37:53;;;;;;;1.48;0.70;;;;;;;;;;4983808;28;20046;-63
2022/12/31 00:40:28;;;;;;;2.25;0.70;;;;;;;;;;4983811;28;20569;-62
2022/12/31 00:42:55;;;;;;;3.15;0.70;;;;;;;;;;4988365;28;20057;-72
2022/12/31 00:45:28;;;;;;;2.22;0.90;;;;;;;;;;4988812;28;20048;-72
2022/12/31 00:47:56;;;;;;;1.38;0.68;;;;;;;;;;4990924;28;20578;-72
2022/12/31 00:50:23;;;;;;;3.55;1.10;;;;;;;;;;4992348;28;20141;-72
2022/12/31 00:52:56;;;;;;;5.78;1.10;;;;;;;;;;4986327;28;20332;-72
2022/12/31 00:55:24;;;;;;;8.40;1.42;;;;;;;;;;4987374;28;20042;-73
2022/12/31 00:57:57;;;;;;;5.20;1.38;;;;;;;;;;4986298;28;20046;-54
2022/12/31 01:00:25;;;;;;;4.03;1.35;;;;;;;;;;4983981;28;20777;-66
2022/12/31 01:02:52;;;;;;;4.85;1.40;;;;;;;;;;4985313;28;20424;-66
2022/12/31 01:05:26;;;;;;;7.57;1.83;;;;;;;;;;4986657;28;20509;-65
2022/12/31 01:07:53;;;;;;;5.53;1.90;;;;;;;;;;4981874;28;20050;-65
2022/12/31 01:13:12;;;;;;;8.30;2.28;;;;;;;;;;4980471;28;20157;-65
2022/12/31 01:15:46;;;;;;;7.85;2.17;;;;;;;;;;4985442;28;20042;-54
2022/12/31 01:18:13;;;;;;;16.42;2.78;;;;;;;;;;4988366;28;20367;-63
2022/12/31 01:20:41;;;;;;;17.33;3.13;;;;;;;;;;4986186;28;20168;-48
2022/12/31 01:23:14;;;;;;;17.65;2.42;;;;;;;;;;4989736;28;20136;-49
2022/12/31 01:25:42;;;;;;;23.08;3.33;;;;;;;;;;4986488;28;20520;-56
2022/12/31 01:28:16;;;;;;;18.90;2.70;;;;;;;;;;4986428;28;20473;-52
2022/12/31 01:30:55;;;;;;;15.65;3.55;;;;;;;;;;4986505;28;20607;-53
2022/12/31 01:33:30;;;;;;;22.00;3.35;;;;;;;;;;4982026;28;20070;-49
2022/12/31 01:36:05;;;;;;;16.00;3.10;;;;;;;;;;4983744;28;20050;-70
2022/12/31 01:38:39;;;;;;;28.25;3.75;;;;;;;;;;4985068;28;20474;-63
2022/12/31 01:41:06;;;;;;;;;;;;;;;;;;4987109;28;20049;-62
2022/12/31 01:43:44;;;;;;;28.27;3.75;;;;;;;;;;4983841;28;19943;-63
2022/12/31 01:46:24;;;;;;;23.33;2.90;;;;;;;;;;4985863;28;20391;-63
2022/12/31 01:49:01;;;;;;;37.13;4.47;;;;;;;;;;4983084;28;20830;-63
2022/12/31 01:51:35;;;;;;;23.30;3.75;;;;;;;;;;4988866;28;20041;-63
2022/12/31 01:54:04;;;;;;;24.58;3.53;;;;;;;;;;4986806;28;20046;-47
2022/12/31 01:56:31;;;;;;;21.02;3.67;;;;;;;;;;4988652;28;20034;-69
2022/12/31 01:59:06;;;;;;;26.25;4.28;;;;;;;;;;4985647;28;20064;-69
2022/12/31 02:01:35;;;;;;;46.08;4.25;;;;;;;;;;4984250;28;20440;-69
2022/12/31 02:04:10;;;;;;;27.92;3.85;;;;;;;;;;4984723;28;20042;-69
2022/12/31 02:06:39;;;;;;;27.17;3.83;;;;;;;;;;4989929;28;20129;-69
2022/12/31 02:09:07;;;;;;;47.53;4.60;;;;;;;;;;4982384;28;20136;-69
2022/12/31 02:11:41;;;;;;;42.38;4.93;;;;;;;;;;4992531;28;20050;-62
2022/12/31 02:14:10;;;;;;;33.47;4.55;;;;;;;;;;4986408;28;20759;-60
2022/12/31 02:16:49;;;;;;;29.35;4.60;;;;;;;;;;4981557;28;20078;-60
2022/12/31 02:19:31;;;;;;;37.40;4.65;;;;;;;;;;4989569;28;20101;-60
2022/12/31 02:22:24;;;;;;;30.60;4.32;;;;;;;;;;4983898;28;20398;-60
2022/12/31 02:25:09;;;;;;;35.83;4.07;;;;;;;;;;4987935;28;20615;-60
2022/12/31 02:28:02;;;;;;;39.05;5.43;;;;;;;;;;4987134;28;20519;-60
2022/12/31 02:30:37;;;;;;;36.80;4.80;;;;;;;;;;4982732;28;20050;-52
2022/12/31 02:33:25;;;;;;;36.25;4.18;;;;;;;;;;4988139;28;20053;-60
2022/12/31 02:36:01;;;;;;;29.55;4.80;;;;;;;;;;4983185;28;20058;-58
2022/12/31 02:38:38;;;;;;;28.35;4.50;;;;;;;;;;4987390;28;20045;-60
2022/12/31 02:41:05;;;;;;;37.55;5.35;;;;;;;;;;4984444;28;20666;-59
2022/12/31 02:43:32;;;;;;;36.22;5.63;;;;;;;;;;4986664;28;20052;-60
2022/12/31 02:46:16;;;;;;;45.60;5.15;;;;;;;;;;4988796;28;20049;-58
2022/12/31 02:48:44;;;;;;;;;;;;;;;;;;4990906;28;20569;-69
2022/12/31 02:51:27;;;;;;;27.65;5.70;;;;;;;;;;4984112;28;19940;-48
2022/12/31 02:54:02;;;;;;;45.33;5.47;;;;;;;;;;4988594;28;20133;-48
2022/12/31 02:56:49;;;;;;;34.22;4.53;;;;;;;;;;4986307;28;20050;-51
2022/12/31 03:02:29;;;;;;;54.15;6.05;;;;;;;;;;4985605;28;20145;-47
2022/12/31 03:04:57;;;;;;;47.40;6.57;;;;;;;;;;4987959;28;20516;-50
2022/12/31 03:07:32;;;;;;;49.67;6.80;;;;;;;;;;4980414;28;20072;-61
2022/12/31 03:10:02;;;;;;;49.25;6.70;;;;;;;;;;4980816;28;20132;-49
2022/12/31 03:12:48;;;;;;;54.95;6.65;;;;;;;;;;4986130;28;20100;-48
2022/12/31 03:15:18;;;;;;;44.28;7.20;;;;;;;;;;4988045;28;20046;-47
2022/12/31 03:17:54;;;;;;;56.88;7.15;;;;;;;;;;4987195;28;20060;-49
2022/12/31 03:23:24;;;;;;;43.75;5.82;;;;;;;;;;4987341;28;20137;-49
2022/12/31 03:25:58;;;;;;;51.42;6.82;;;;;;;;;;4982698;28;20490;-50
2022/12/31 03:28:32;;;;;;;56.78;7.22;;;;;;;;;;4987624;28;20056;-49
2022/12/31 03:31:05;;;;;;;63.65;7.40;;;;;;;;;;4978955;28;20058;-48
2022/12/31 03:33:40;;;;;;;56.00;7.40;;;;;;;;;;4985466;28;24736;-55
2022/12/31 03:36:08;;;;;;;61.85;7.20;;;;;;;;;;4984918;28;20057;-50
2022/12/31 03:38:35;;;;;;;57.53;6.03;;;;;;;;;;4985254;28;20078;-50
2022/12/31 03:41:09;;;;;;;61.40;6.68;;;;;;;;;;5007712;28;20063;-49
2022/12/31 03:43:37;;;;;;;61.90;7.00;;;;;;;;;;5010266;28;20042;-59
2022/12/31 03:46:04;;;;;;;68.90;7.95;;;;;;;;;;5008840;28;20136;-60
2022/12/31 03:48:38;;;;;;;71.53;8.57;;;;;;;;;;5009579;28;20057;-60
2022/12/31 03:51:05;;;;;;;67.97;8.23;;;;;;;;;;5010554;28;20141;-60
2022/12/31 03:53:34;;;;;;;46.20;5.40;;;;;;;;;;5013288;28;20055;-60
2022/12/31 03:56:08;;;;;;;51.70;7.03;;;;;;;;;;5011347;28;20054;-60
2022/12/31 03:58:35;;;;;;;67.20;8.18;;;;;;;;;;5011716;28;20068;-60
2022/12/31 04:01:09;;;;;;;65.45;8.98;;;;;;;;;;5006622;28;20059;-53
2022/12/31 04:03:36;;;;;;;64.15;8.48;;;;;;;;;;5008901;28;20305;-59
2022/12/31 04:06:03;;;;;;;51.50;6.95;;;;;;;;;;5004884;28;20068;-60
2022/12/31 04:08:37;;;;;;;64.15;7.97;;;;;;;;;;5008452;28;20143;-60
2022/12/31 04:11:04;;;;;;;53.67;7.07;;;;;;;;;;5008983;28;20056;-60
2022/12/31 04:13:44;;;;;;;65.68;7.20;;;;;;;;;;5013858;28;20124;-61
2022/12/31 04:16:12;;;;;;;70.20;8.40;;;;;;;;;;5010572;28;20432;-60
2022/12/31 04:18:46;;;;;;;58.83;7.20;;;;;;;;;;5011877;28;20045;-60
2022/12/31 04:21:20;;;;;;;58.85;6.70;;;;;;;;;;5013595;28;20492;-60
2022/12/31 04:23:47;;;;;;;75.93;8.07;;;;;;;;;;5013264;28;20049;-52
2022/12/31 04:26:14;;;;;;;69.85;8.27;;;;;;;;;;5008927;28;20069;-47
2022/12/31 04:28:48;;;;;;;65.50;7.90;;;;;;;;;;5008327;28;20475;-48
2022/12/31 04:31:22;;;;;;;64.07;7.93;;;;;;;;;;5007886;28;20157;-51
2022/12/31 04:34:02;;;;;;;67.00;7.47;;;;;;;;;;5009359;28;20050;-53
2022/12/31 04:36:30;;;;;;;67.40;8.25;;;;;;;;;;5011392;28;20041;-47
2022/12/31 04:39:04;;;;;;;76.25;7.93;;;;;;;;;;5009245;28;20053;-63
2022/12/31 04:41:31;;;;;;;75.03;7.78;;;;;;;;;;5007999;28;20321;-48
2022/12/31 04:43:59;;;;;;;70.25;7.15;;;;;;;;;;5014887;28;20045;-50
2022/12/31 04:46:33;;;;;;;65.72;8.73;;;;;;;;;;5008691;28;20784;-48
2022/12/31 04:49:00;;;;;;;76.80;8.27;;;;;;;;;;5009057;28;20531;-46
2022/12/31 04:51:34;;;;;;;68.38;8.75;;;;;;;;;;5011253;28;20145;-47
2022/12/31 04:54:01;;;;;;;;;;;;;;;;;;5015288;28;20052;-47
2022/12/31 04:56:28;;;;;;;49.03;7.45;;;;;;;;;;5010578;28;19933;-60
2022/12/31 04:59:03;;;;;;;71.32;8.73;;;;;;;;;;5010402;28;20059;-47
2022/12/31 05:01:31;;;;;;;57.65;7.05;;;;;;;;;;5015438;28;20140;-68
2022/12/31 05:04:05;;;;;;;72.82;8.15;;;;;;;;;;5016345;28;20061;-69
2022/12/31 05:06:32;;;;;;;63.88;8.32;;;;;;;;;;5016488;28;20050;-69
2022/12/31 05:08:59;;;;;;;59.63;7.65;;;;;;;;;;5014365;28;20522;-68
2022/12/31 05:11:34;;;;;;;53.50;7.38;;;;;;;;;;5012959;28;20053;-68
2022/12/31 05:14:01;;;;;;;55.70;7.70;;;;;;;;;;5008879;28;20133;-69
2022/12/31 05:16:35;;;;;;;60.13;7.63;;;;;;;;;;5005051;28;20475;-64
2022/12/31 05:19:05;;;;;;;67.65;7.55;;;;;;;;;;5010096;28;20397;-55
2022/12/31 05:21:32;;;;;;;48.75;5.72;;;;;;;;;;5008127;28;20122;-58
2022/12/31 05:24:06;;;;;;;43.70;6.60;;;;;;;;;;5007006;28;20432;-58
2022/12/31 05:26:33;;;;;;;58.95;6.57;;;;;;;;;;5009217;28;20055;-56
2022/12/31 05:29:07;;;;;;;68.68;8.25;;;;;;;;;;5006728;28;20057;-55
2022/12/31 05:31:41;;;;;;;52.88;7.72;;;;;;;;;;5007573;28;20060;-57
2022/12/31 05:34:15;;;;;;;55.80;7.15;;;;;;;;;;5008769;28;20050;-50
2022/12/31 05:36:42;;;;;;;74.57;8.00;;;;;;;;;;5007561;28;20374;-63
2022/12/31 05:39:09;;;;;;;63.72;7.10;;;;;;;;;;5005853;28;20141;-63
2022/12/31 05:41:43;;;;;;;58.90;7.82;;;;;;;;;;5006883;28;20045;-63
2022/12/31 05:44:10;;;;;;;57.40;7.85;;;;;;;;;;5004556;28;20100;-63
2022/12/31 05:46:44;;;;;;;53.53;7.60;;;;;;;;;;5008769;28;20053;-63
2022/12/31 05:49:11;;;;;;;52.88;7.82;;;;;;;;;;5006062;28;20052;-63
2022/12/31 05:51:38;;;;;;;63.90;7.18;;;;;;;;;;5009195;28;20050;-60
2022/12/31 05:54:12;;;;;;;53.05;7.20;;;;;;;;;;5009253;28;20136;-63
2022/12/31 05:56:39;;;;;;;65.30;7.30;;;;;;;;;;5011723;28;20053;-53
2022/12/31 05:59:13;;;;;;;53.28;7.15;;;;;;;;;;5009664;28;20045;-56
2022/12/31 06:01:40;;;;;;;63.90;6.85;;;;;;;;;;5003345;28;20806;-58
2022/12/31 06:04:07;;;;;;;77.70;8.52;;;;;;;;;;5008773;28;20057;-56
2022/12/31 06:06:41;;;;;;;55.88;7.03;;;;;;;;;;5004228;28;20152;-56
2022/12/31 06:09:08;;;;;;;55.88;7.65;;;;;;;;;;5009413;28;20065;-61
2022/12/31 06:11:42;;;;;;;58.05;7.60;;;;;;;;;;5006241;28;20041;-57
2022/12/31 06:14:09;;;;;;;55.00;8.38;;;;;;;;;;5008409;28;20459;-60
2022/12/31 06:16:36;;;;;;;;;;;;;;;;;;5004138;28;20079;-59
2022/12/31 06:19:10;;;;;;;51.88;6.95;;;;;;;;;;5011049;28;19930;-60
2022/12/31 06:21:37;;;;;;;62.53;8.15;;;;;;;;;;5003776;28;20045;-59
2022/12/31 06:24:11;;;;;;;67.05;8.50;;;;;;;;;;5007288;28;20054;-59
2022/12/31 06:26:38;;;;;;;48.67;7.53;;;;;;;;;;5010075;28;20507;-59
2022/12/31 06:29:05;;;;;;;47.53;6.70;;;;;;;;;;5008042;28;20099;-59
2022/12/31 06:31:52;;;;;;;52.28;6.90;;;;;;;;;;5008114;28;20065;-46
2022/12/31 06:34:26;;;;;;;64.45;8.38;;;;;;;;;;5007344;28;20053;-54
2022/12/31 06:37:00;;;;;;;58.30;7.78;;;;;;;;;;5007470;28;20144;-53
2022/12/31 06:39:27;;;;;;;53.58;8.23;;;;;;;;;;5004130;28;20049;-49
2022/12/31 06:41:54;;;;;;;38.90;6.03;;;;;;;;;;5008116;28;20076;-50
2022/12/31 06:44:28;;;;;;;54.75;6.75;;;;;;;;;;5006614;28;20089;-50
2022/12/31 06:46:55;;;;;;;49.80;7.20;;;;;;;;;;5009834;28;20045;-46
2022/12/31 06:49:29;;;;;;;63.17;7.80;;;;;;;;;;5003769;28;20497;-59
2022/12/31 06:51:56;;;;;;;54.40;8.35;;;;;;;;;;5008544;28;20148;-60
2022/12/31 06:54:23;;;;;;;57.63;8.00;;;;;;;;;;5011688;28;20144;-60
2022/12/31 06:56:57;;;;;;;61.15;7.28;;;;;;;;;;5003255;28;20438;-60
2022/12/31 06:59:25;;;;;;;51.72;6.50;;;;;;;;;;5001923;28;20049;-60
2022/12/31 07:02:04;;;;;;;46.42;6.78;;;;;;;;;;5000625;28;20069;-60
2022/12/31 07:04:45;;;;;;;43.63;6.40;;;;;;;;;;5012453;28;20487;-60
2022/12/31 07:07:19;;;;;;;52.13;6.68;;;;;;;;;;5004929;28;20081;-60
2022/12/31 07:09:50;;;;;;;51.45;6.43;;;;;;;;;;5009583;28;20049;-48
2022/12/31 07:12:22;;;;;;;50.60;6.80;;;;;;;;;;5007691;28;20107;-47
2022/12/31 07:15:01;;;;;;;55.65;6.68;;;;;;;;;;5008110;28;20220;-52
2022/12/31 07:17:28;;;;;;;48.95;6.85;;;;;;;;;;5008758;28;20062;-46
2022/12/31 07:20:08;;;;;;;52.60;6.60;;;;;;;;;;5012647;28;20049;-47
2022/12/31 07:22:35;;;;;;;57.67;7.47;;;;;;;;;;5011592;28;20519;-47
2022/12/31 07:25:12;;;;;;;63.70;7.72;;;;;;;;;;5012164;28;20053;-68
2022/12/31 07:27:46;;;;;;;58.13;7.07;;;;;;;;;;5014623;28;20046;-59
2022/12/31 07:30:42;;;;;;;57.28;8.05;;;;;;;;;;5007508;28;20057;-59
2022/12/31 07:33:39;;;;;;;54.58;7.32;;;;;;;;;;4995503;28;20487;-60
2022/12/31 07:36:29;;;;;;;47.20;7.22;;;;;;;;;;4987004;28;20046;-59
2022/12/31 07:39:01;;;;;;;48.85;6.90;;;;;;;;;;4996162;28;20228;-59
2022/12/31 07:41:47;;;;;;;59.53;7.88;;;;;;;;;;4997206;28;20073;-51
2022/12/31 07:44:19;;;;;;;59.67;7.80;;;;;;;;;;5000255;28;20045;-59
2022/12/31 07:46:54;;;;;;;44.75;6.80;;;;;;;;;;4995034;28;20123;-58
2022/12/31 07:49:22;;;;;;;58.00;7.20;;;;;;;;;;4993584;28;20050;-60
2022/12/31 07:51:56;;;;;;;53.00;7.07;;;;;;;;;;4998161;28;20052;-60
2022/12/31 07:54:23;;;;;;;48.58;6.97;;;;;;;;;;4995461;28;20053;-59
2022/12/31 07:56:57;;;;;;;55.95;6.43;;;;;;;;;;4999242;28;20189;-60
2022/12/31 07:59:32;;;;;;;64.90;7.38;;;;;;;;;;5003933;28;20150;-60
2022/12/31 08:02:21;;;;;;;55.83;7.68;;;;;;;;;;5003754;28;20409;-59
2022/12/31 08:04:57;;;;;;;55.60;7.18;;;;;;;;;;4997631;28;20065;-52
2022/12/31 08:07:44;;;;;;;60.13;6.97;;;;;;;;;;4998287;28;20394;-49
2022/12/31 08:10:19;;;;;;;58.20;7.05;;;;;;;;;;5001084;28;20054;-48
2022/12/31 08:12:58;;;;;;;55.60;7.20;;;;;;;;;;5006097;28;20045;-50
2022/12/31 08:15:25;;;;;;;73.45;8.88;;;;;;;;;;4998730;28;20048;-50
2022/12/31 08:17:56;;;;;;;49.70;7.88;;;;;;;;;;4981879;28;20157;-48
2022/12/31 08:20:31;;;;;;;63.20;7.63;;;;;;;;;;4995174;28;20046;-68
2022/12/31 08:23:07;;;;;;;62.05;7.28;;;;;;;;;;5000027;28;20104;-58
2022/12/31 08:25:54;;;;;;;59.30;7.40;;;;;;;;;;4993571;28;20799;-57
2022/12/31 08:28:24;;;;;;;64.72;8.73;;;;;;;;;;4997769;28;20046;-58
2022/12/31 08:31:30;;;;;;;53.45;7.68;;;;;;;;;;4993401;28;20062;-57
2022/12/31 08:34:14;;;;;;;52.50;6.60;;;;;;;;;;5005844;28;20060;-58
2022/12/31 08:36:53;;;;;;;61.47;7.30;;;;;;;;;;5008723;28;20136;-62
2022/12/31 08:39:39;;;;;;;54.63;6.93;;;;;;;;;;5011021;28;20144;-55
2022/12/31 08:42:30;;;;;;;54.00;8.27;;;;;;;;;;5006605;28;20095;-60
2022/12/31 08:45:16;;;;;;;52.90;5.90;;;;;;;;;;5015070;28;20049;-61
2022/12/31 08:47:50;;;;;;;48.58;7.20;;;;;;;;;;5009829;28;20534;-59
2022/12/31 08:50:25;;;;;;;53.03;7.32;;;;;;;;;;4999065;28;20049;-59
2022/12/31 08:52:59;;;;;;;63.25;8.00;;;;;;;;;;5016501;28;20048;-59
2022/12/31 08:55:33;;;;;;;54.25;6.65;;;;;;;;;;5015094;28;20097;-60
2022/12/31 08:58:19;;;;;;;52.35;7.35;;;;;;;;;;5014127;28;20131;-69
2022/12/31 09:00:56;;;;;;;53.45;8.07;;;;;;;;;;5009065;28;20068;-50
2022/12/31 09:03:39;;;;;;;63.13;8.07;;;;;;;;;;5015763;28;20060;-47
2022/12/31 09:06:16;;;;;;;57.90;7.93;;;;;;;;;;5012821;28;20060;-50
2022/12/31 09:08:43;;;;;;;46.33;6.63;;;;;;;;;;5002139;28;20054;-47
2022/12/31 09:11:13;;;;;;;69.80;7.50;;;;;;;;;;5010720;28;20056;-49
2022/12/31 09:13:55;;;;;;;62.72;8.25;;;;;;;;;;5010436;28;20053;-68
2022/12/31 09:16:25;;;;;;;49.60;7.40;;;;;;;;;;5009781;28;20596;-48
2022/12/31 09:18:59;;;;;;;67.88;8.18;;;;;;;;;;4997012;28;20050;-60
2022/12/31 09:21:26;;;;;;;55.42;6.97;;;;;;;;;;5004434;28;20215;-60
2022/12/31 09:24:00;;;;;;;51.63;7.57;;;;;;;;;;5011345;28;20049;-60
2022/12/31 09:26:41;;;;;;;54.72;7.30;;;;;;;;;;5011932;28;20037;-60
2022/12/31 09:29:30;;;;;;;64.60;8.32;;;;;;;;;;5006616;28;20475;-60
2022/12/31 09:32:36;;;;;;;63.72;7.15;;;;;;;;;;5008047;28;20060;-61
2022/12/31 09:35:38;;;;;;;56.30;7.90;;;;;;;;;;4981638;28;20057;-51
2022/12/31 09:38:11;;;;;;;54.92;7.93;;;;;;;;;;5002992;28;20062;-50
2022/12/31 09:40:47;;;;;;;58.65;7.72;;;;;;;;;;5003950;28;20511;-50
2022/12/31 09:43:33;;;;;;;49.30;6.65;;;;;;;;;;5009288;28;20056;-50
2022/12/31 09:46:28;;;;;;;62.03;8.27;;;;;;;;;;5007895;28;20052;-50
2022/12/31 09:48:55;;;;;;;;;;;;;;;;;;5011762;28;20056;-49
2022/12/31 09:51:35;;;;;;;56.95;6.68;;;;;;;;;;5007640;28;20304;-68
2022/12/31 09:54:20;;;;;;;54.63;7.20;;;;;;;;;;5005512;28;20440;-61
2022/12/31 09:57:07;;;;;;;52.20;7.60;;;;;;;;;;5006197;28;20151;-61
2022/12/31 09:59:43;;;;;;;57.42;7.47;;;;;;;;;;5006695;28;20049;-60
2022/12/31 10:02:41;;;;;;;57.05;8.45;;;;;;;;;;5005620;28;20046;-60
2022/12/31 10:05:21;;;;;;;62.17;7.50;;;;;;;;;;5010138;28;20092;-60
2022/12/31 10:07:57;;;;;;;61.67;8.18;;;;;;;;;;5006113;28;20413;-61
2022/12/31 10:10:40;;;;;;;53.25;7.28;;;;;;;;;;5011199;28;20046;-69
2022/12/31 10:13:13;;;;;;;52.28;6.90;;;;;;;;;;5004842;28;20863;-61
2022/12/31 10:15:40;;;;;;;57.95;7.60;;;;;;;;;;5011231;28;20377;-61
2022/12/31 10:18:11;;;;;;;49.67;6.75;;;;;;;;;;5008599;28;20060;-61
2022/12/31 10:21:00;;;;;;;52.35;6.35;;;;;;;;;;5008175;28;20049;-61
2022/12/31 10:23:52;;;;;;;56.97;6.82;;;;;;;;;;5010368;28;20132;-62
2022/12/31 10:26:19;;;;;;;50.22;7.50;;;;;;;;;;5006964;28;20133;-61
2022/12/31 10:28:56;;;;;;;54.83;7.05;;;;;;;;;;5007374;28;20049;-59
2022/12/31 10:31:47;;;;;;;53.70;6.63;;;;;;;;;;5005327;28;20054;-60
2022/12/31 10:34:37;;;;;;;48.67;6.85;;;;;;;;;;5011130;28;20045;-60
2022/12/31 10:37:10;;;;;;;43.13;6.97;;;;;;;;;;4993699;28;20061;-60
2022/12/31 10:40:03;;;;;;;44.40;6.57;;;;;;;;;;5002802;28;20057;-59
2022/12/31 10:42:39;;;;;;;45.60;6.18;;;;;;;;;;5002387;28;20053;-59
2022/12/31 10:45:22;;;;;;;61.83;7.28;;;;;;;;;;5009044;28;20142;-58
2022/12/31 10:48:13;;;;;;;56.20;7.28;;;;;;;;;;5009583;28;20131;-69
2022/12/31 10:50:40;;;;;;;51.22;6.95;;;;;;;;;;5006978;28;20071;-60
2022/12/31 10:53:37;;;;;;;56.40;7.53;;;;;;;;;;5009709;28;20432;-59
2022/12/31 10:56:21;;;;;;;53.50;7.68;;;;;;;;;;5008328;28;20463;-59
2022/12/31 10:59:10;;;;;;;54.30;7.88;;;;;;;;;;5007332;28;20166;-58
2022/12/31 11:01:58;;;;;;;54.00;8.13;;;;;;;;;;5006199;28;20056;-58
2022/12/31 11:04:56;;;;;;;58.63;7.90;;;;;;;;;;5011903;28;20424;-70
2022/12/31 11:07:42;;;;;;;47.33;7.75;;;;;;;;;;5011270;28;20067;-60
2022/12/31 11:10:25;;;;;;;47.90;8.18;;;;;;;;;;5013334;28;20520;-59
2022/12/31 11:13:11;;;;;;;43.97;6.13;;;;;;;;;;5008900;28;20624;-60
2022/12/31 11:15:53;;;;;;;57.33;7.53;;;;;;;;;;5007671;28;20045;-59
2022/12/31 11:18:33;;;;;;;51.10;8.68;;;;;;;;;;4987364;28;20049;-60
2022/12/31 11:21:21;;;;;;;52.63;6.10;;;;;;;;;;5007191;28;20056;-60
2022/12/31 11:24:02;;;;;;;48.78;7.82;;;;;;;;;;5011273;28;20080;-46
2022/12/31 11:26:36;;;;;;;49.33;7.25;;;;;;;;;;5000970;28;20037;-61
2022/12/31 11:29:09;;;;;;;51.97;7.45;;;;;;;;;;5001981;28;20647;-59
2022/12/31 11:31:56;;;;;;;55.70;7.50;;;;;;;;;;4999073;28;20428;-59
2022/12/31 11:34:35;;;;;;;53.13;8.38;;;;;;;;;;5005222;28;20077;-60
2022/12/31 11:37:17;;;;;;;51.53;7.63;;;;;;;;;;5008208;28;20045;-58
2022/12/31 11:39:44;;;;;;;35.97;5.68;;;;;;;;;;5004744;28;20153;-60
2022/12/31 11:42:26;;;;;;;58.72;7.80;;;;;;;;;;5004206;28;20127;-54
2022/12/31 11:44:58;;;;;;;56.55;7.43;;;;;;;;;;5007209;28;20064;-59
2022/12/31 11:47:32;;;;;;;57.30;7.20;;;;;;;;;;5005221;28;20129;-60
2022/12/31 11:50:05;;;;;;;51.63;7.38;;;;;;;;;;5002548;28;20056;-60
2022/12/31 11:52:45;;;;;;;59.92;8.63;;;;;;;;;;5005681;28;20045;-60
2022/12/31 11:55:24;;;;;;;60.55;7.47;;;;;;;;;;5007078;28;20136;-60
2022/12/31 11:57:52;;;;;;;47.40;7.80;;;;;;;;;;5006507;28;20061;-60
2022/12/31 12:00:27;;;;;;;52.47;8.88;;;;;;;;;;5000778;28;20037;-51
2022/12/31 12:02:58;;;;;;;41.72;6.18;;;;;;;;;;5001134;28;20049;-60
2022/12/31 12:05:33;;;;;;;45.63;7.22;;;;;;;;;;4988984;28;20055;-58
2022/12/31 12:08:00;;;;;;;64.95;7.75;;;;;;;;;;5005859;28;20056;-59
2022/12/31 12:10:34;;;;;;;59.42;8.30;;;;;;;;;;5002818;28;20148;-59
2022/12/31 12:13:23;;;;;;;84.28;16.35;;;;;;;;;;5010208;28;20111;-59
2022/12/31 12:15:58;;;;;;;52.40;7.40;;;;;;;;;;5012120;28;20064;-58
2022/12/31 12:18:28;;;;;;;49.42;7.32;;;;;;;;;;5009349;28;20048;-58
2022/12/31 12:21:03;;;;;;;55.92;7.50;;;;;;;;;;5003451;28;20055;-50
2022/12/31 12:23:37;;;;;;;54.38;7.53;;;;;;;;;;5001377;28;20337;-51
2022/12/31 12:26:05;;;;;;;47.60;7.10;;;;;;;;;;5009694;28;20567;-48
2022/12/31 12:28:43;;;;;;;56.35;7.38;;;;;;;;;;5009655;28;20651;-47
2022/12/31 12:31:26;;;;;;;52.08;7.90;;;;;;;;;;5004619;28;20057;-53
2022/12/31 12:34:00;;;;;;;48.90;7.13;;;;;;;;;;4989832;28;20057;-52
2022/12/31 12:36:27;;;;;;;50.47;6.70;;;;;;;;;;4985519;28;20102;-60
2022/12/31 12:39:01;;;;;;;50.78;8.15;;;;;;;;;;4986575;28;20513;-50
2022/12/31 12:41:35;;;;;;;65.55;8.90;;;;;;;;;;4986408;28;20053;-50
2022/12/31 12:44:06;;;;;;;44.47;7.93;;;;;;;;;;4990539;28;20046;-49
2022/12/31 12:46:44;;;;;;;54.20;7.70;;;;;;;;;;4991624;28;20054;-48
2022/12/31 12:49:25;;;;;;;49.75;8.55;;;;;;;;;;4991688;28;20050;-47
2022/12/31 12:51:59;;;;;;;61.53;7.80;;;;;;;;;;4983023;28;20058;-51
2022/12/31 12:54:35;;;;;;;66.30;8.60;;;;;;;;;;4989233;28;20078;-60
2022/12/31 12:57:28;;;;;;;59.83;7.32;;;;;;;;;;4983867;28;20042;-69
2022/12/31 13:00:06;;;;;;;47.42;7.35;;;;;;;;;;4992154;28;20125;-70
2022/12/31 13:03:15;;;;;;;50.65;7.10;;;;;;;;;;4985293;28;20050;-71
2022/12/31 13:05:52;;;;;;;54.33;8.48;;;;;;;;;;4894953;29;20678;-70
2022/12/31 13:08:26;;;;;;;60.88;8.40;;;;;;;;;;4977911;28;20066;-71
2022/12/31 13:11:14;;;;;;;50.55;8.10;;;;;;;;;;4989179;28;20521;-71
2022/12/31 13:13:53;;;;;;;52.58;7.97;;;;;;;;;;4987188;28;20050;-56
2022/12/31 13:16:24;;;;;;;57.00;7.60;;;;;;;;;;4987667;28;20051;-60
2022/12/31 13:19:09;;;;;;;49.30;8.18;;;;;;;;;;4979442;28;20132;-60
2022/12/31 13:21:40;;;;;;;55.22;7.50;;;;;;;;;;4985363;28;20731;-60
2022/12/31 13:24:24;;;;;;;44.38;6.22;;;;;;;;;;4982922;28;20141;-60
2022/12/31 13:26:55;;;;;;;63.30;7.70;;;;;;;;;;4988332;28;20791;-59
2022/12/31 13:29:30;;;;;;;47.20;7.45;;;;;;;;;;4981608;28;22952;-60
2022/12/31 13:32:23;;;;;;;47.58;6.90;;;;;;;;;;4992497;28;20180;-60
2022/12/31 13:35:01;;;;;;;58.08;7.20;;;;;;;;;;5007422;28;20045;-60
2022/12/31 13:37:39;;;;;;;49.95;7.22;;;;;;;;;;5006780;28;20056;-60
2022/12/31 13:40:17;;;;;;;47.03;6.70;;;;;;;;;;5000213;28;20049;-60
2022/12/31 13:43:00;;;;;;;52.70;7.38;;;;;;;;;;5008635;28;20049;-60
2022/12/31 13:45:31;;;;;;;44.38;6.15;;;;;;;;;;5010180;28;20052;-60
2022/12/31 13:48:07;;;;;;;56.17;8.43;;;;;;;;;;5005225;28;20077;-60
2022/12/31 13:50:59;;;;;;;49.17;7.95;;;;;;;;;;5007339;28;20053;-58
2022/12/31 13:53:36;;;;;;;47.50;6.95;;;;;;;;;;5002145;28;20132;-51
2022/12/31 13:56:07;;;;;;;51.92;6.60;;;;;;;;;;5008263;28;20104;-57
2022/12/31 13:58:44;;;;;;;63.97;7.40;;;;;;;;;;5007657;28;20057;-56
2022/12/31 14:01:11;;;;;;;56.47;6.53;;;;;;;;;;5005817;28;20047;-59
2022/12/31 14:03:59;;;;;;;43.05;6.53;;;;;;;;;;5006211;28;21015;-57
2022/12/31 14:06:30;;;;;;;44.60;6.25;;;;;;;;;;5008737;28;20046;-59
2022/12/31 14:09:06;;;;;;;47.97;7.00;;;;;;;;;;5002643;28;20156;-61
2022/12/31 14:12:06;;;;;;;38.22;6.78;;;;;;;;;;5011995;28;20170;-60
2022/12/31 14:14:46;;;;;;;43.83;5.60;;;;;;;;;;4981597;28;20045;-61
2022/12/31 14:17:26;;;;;;;54.53;6.65;;;;;;;;;;5011260;28;20077;-61
2022/12/31 14:20:05;;;;;;;41.80;6.80;;;;;;;;;;5012270;28;20046;-61
2022/12/31 14:22:51;;;;;;;47.05;6.18;;;;;;;;;;5013554;28;20041;-61
2022/12/31 14:25:28;;;;;;;37.65;6.20;;;;;;;;;;5013955;28;20350;-61
2022/12/31 14:27:56;;;;;;;40.75;5.35;;;;;;;;;;5010130;28;20052;-62
2022/12/31 14:30:36;;;;;;;46.03;6.57;;;;;;;;;;5013044;28;20177;-56
2022/12/31 14:33:23;;;;;;;51.17;6.30;;;;;;;;;;4985388;28;20068;-60
2022/12/31 14:36:12;;;;;;;43.80;7.43;;;;;;;;;;4984935;28;20052;-60
2022/12/31 14:39:06;;;;;;;46.30;6.53;;;;;;;;;;4988489;28;20048;-60
2022/12/31 14:41:55;;;;;;;53.15;7.22;;;;;;;;;;4984706;28;20501;-61
2022/12/31 14:44:31;;;;;;;45.63;7.47;;;;;;;;;;4991161;28;20516;-61
2022/12/31 14:47:23;;;;;;;51.22;6.50;;;;;;;;;;4982577;28;20823;-50
2022/12/31 14:50:03;;;;;;;39.85;5.78;;;;;;;;;;4990388;28;20108;-52
2022/12/31 14:52:53;;;;;;;42.17;5.70;;;;;;;;;;4988993;28;20148;-46
2022/12/31 14:55:27;;;;;;;46.25;6.35;;;;;;;;;;4985837;28;20437;-53
2022/12/31 14:58:02;;;;;;;41.38;5.20;;;;;;;;;;4988610;28;20502;-50
2022/12/31 15:00:57;;;;;;;39.35;6.03;;;;;;;;;;4992294;28;20426;-50
2022/12/31 15:03:33;;;;;;;49.40;6.80;;;;;;;;;;4990365;28;20420;-46
2022/12/31 15:06:13;;;;;;;47.75;6.88;;;;;;;;;;4986212;28;20137;-46
2022/12/31 15:08:56;;;;;;;48.85;7.82;;;;;;;;;;4985638;28;20041;-49
2022/12/31 15:11:47;;;;;;;52.55;7.10;;;;;;;;;;4986234;28;20617;-46
2022/12/31 15:14:34;;;;;;;47.85;8.65;;;;;;;;;;4984169;28;20105;-47
2022/12/31 15:17:11;;;;;;;51.67;7.10;;;;;;;;;;4982417;28;20058;-45
2022/12/31 15:19:54;;;;;;;47.05;7.63;;;;;;;;;;4989036;28;20454;-48
2022/12/31 15:22:24;;;;;;;68.80;8.13;;;;;;;;;;4981839;28;20421;-48
2022/12/31 15:24:59;;;;;;;55.03;6.97;;;;;;;;;;4975222;28;20053;-48
2022/12/31 15:27:30;;;;;;;59.05;7.63;;;;;;;;;;4982845;28;20144;-46
2022/12/31 15:29:57;;;;;;;54.42;7.30;;;;;;;;;;4981292;28;20433;-46
2022/12/31 15:32:41;;;;;;;54.80;7.78;;;;;;;;;;4986736;28;20444;-46